UDSVT weather

Campo di Volo "I Grifoni"
San Vito al Torre (UD), Friuli-Venezia Giulia, Italy

Public forecast

Using degrees Celsius for public forecast. Weather courtesy of forecast.io.

METAR (pilot weather report)

Closest report is Trieste–Friuli Venezia Giulia Airport, 6.7 nm (12.3 km) SE. Retrieved 2019/07/20 02:20 UTC (0 seconds ago):

LIPQ 200220Z AUTO 03002KT 9999 NCD 18/15 Q1016

TAF (pilot weather forecast)

Forecast is more than 12 hours old.

Closest forecast is Trieste–Friuli Venezia Giulia Airport, 6.7 nm (12.3 km) SE. Retrieved 2019/07/19 00:23 UTC (1 day ago):

TAF LIPQ 192300Z 2000/2024 VRB05KT 9999 FEW040 BECMG 2010/2012 20010KT BECMG 2016/2018 VRB05KT